sensor_id;sensor_type;location;lat;lon;timestamp;temperature;humidity
32348;DHT22;18821;44.800;10.326;2022-09-17T00:01:43;20.30;99.90
32348;DHT22;18821;44.800;10.326;2022-09-17T00:04:09;20.20;99.90
32348;DHT22;18821;44.800;10.326;2022-09-17T00:06:36;20.00;99.90
32348;DHT22;18821;44.800;10.326;2022-09-17T00:09:04;20.00;99.90
32348;DHT22;18821;44.800;10.326;2022-09-17T00:11:34;19.90;99.90
32348;DHT22;18821;44.800;10.326;2022-09-17T00:14:01;19.90;99.90
32348;DHT22;18821;44.800;10.326;2022-09-17T00:16:33;19.90;99.90
32348;DHT22;18821;44.800;10.326;2022-09-17T00:19:00;19.90;99.90
32348;DHT22;18821;44.800;10.326;2022-09-17T00:21:27;19.80;99.90
32348;DHT22;18821;44.800;10.326;2022-09-17T00:23:55;19.80;99.90
32348;DHT22;18821;44.800;10.326;2022-09-17T00:26:22;19.80;99.90
32348;DHT22;18821;44.800;10.326;2022-09-17T00:28:52;19.80;99.90
32348;DHT22;18821;44.800;10.326;2022-09-17T00:31:19;19.70;99.90
32348;DHT22;18821;44.800;10.326;2022-09-17T00:33:46;19.70;99.90
32348;DHT22;18821;44.800;10.326;2022-09-17T00:36:12;19.70;99.90
32348;DHT22;18821;44.800;10.326;2022-09-17T00:38:38;19.70;99.90
32348;DHT22;18821;44.800;10.326;2022-09-17T00:41:06;19.80;99.90
32348;DHT22;18821;44.800;10.326;2022-09-17T00:43:40;19.80;99.90
32348;DHT22;18821;44.800;10.326;2022-09-17T00:46:38;19.70;99.90
32348;DHT22;18821;44.800;10.326;2022-09-17T00:49:28;19.70;99.90
32348;DHT22;18821;44.800;10.326;2022-09-17T00:52:02;19.60;99.90
32348;DHT22;18821;44.800;10.326;2022-09-17T00:54:31;19.60;99.90
32348;DHT22;18821;44.800;10.326;2022-09-17T00:56:58;19.50;99.90
32348;DHT22;18821;44.800;10.326;2022-09-17T00:59:24;19.60;99.90
32348;DHT22;18821;44.800;10.326;2022-09-17T01:01:51;19.60;99.90
32348;DHT22;18821;44.800;10.326;2022-09-17T01:04:22;19.70;99.90
32348;DHT22;18821;44.800;10.326;2022-09-17T01:07:14;19.70;99.90
32348;DHT22;18821;44.800;10.326;2022-09-17T01:15:23;19.50;99.90
32348;DHT22;18821;44.800;10.326;2022-09-17T01:24:05;19.40;99.90
32348;DHT22;18821;44.800;10.326;2022-09-17T01:32:30;19.40;99.90
32348;DHT22;18821;44.800;10.326;2022-09-17T01:35:08;19.40;99.90
32348;DHT22;18821;44.800;10.326;2022-09-17T01:43:16;19.20;99.90
32348;DHT22;18821;44.800;10.326;2022-09-17T01:45:50;19.20;99.90
32348;DHT22;18821;44.800;10.326;2022-09-17T01:48:22;19.20;99.90
32348;DHT22;18821;44.800;10.326;2022-09-17T01:51:06;19.20;99.90
32348;DHT22;18821;44.800;10.326;2022-09-17T01:56:22;19.20;99.90
32348;DHT22;18821;44.800;10.326;2022-09-17T01:59:05;19.20;99.90
32348;DHT22;18821;44.800;10.326;2022-09-17T02:01:32;19.20;99.90
32348;DHT22;18821;44.800;10.326;2022-09-17T02:04:12;19.20;99.90
32348;DHT22;18821;44.800;10.326;2022-09-17T02:06:44;19.20;99.90
32348;DHT22;18821;44.800;10.326;2022-09-17T02:09:44;19.30;99.90
32348;DHT22;18821;44.800;10.326;2022-09-17T02:12:20;19.30;99.90
32348;DHT22;18821;44.800;10.326;2022-09-17T02:14:51;19.20;99.90
32348;DHT22;18821;44.800;10.326;2022-09-17T02:17:28;19.20;99.90
32348;DHT22;18821;44.800;10.326;2022-09-17T02:19:57;19.20;99.90
32348;DHT22;18821;44.800;10.326;2022-09-17T02:25:07;19.20;99.90
32348;DHT22;18821;44.800;10.326;2022-09-17T02:28:00;19.20;99.90
32348;DHT22;18821;44.800;10.326;2022-09-17T02:30:26;19.30;99.90
32348;DHT22;18821;44.800;10.326;2022-09-17T02:32:53;19.20;99.90
32348;DHT22;18821;44.800;10.326;2022-09-17T02:35:20;19.20;99.90
32348;DHT22;18821;44.800;10.326;2022-09-17T02:37:46;19.20;99.90
32348;DHT22;18821;44.800;10.326;2022-09-17T02:40:15;19.10;99.90
32348;DHT22;18821;44.800;10.326;2022-09-17T02:43:08;19.10;99.90
32348;DHT22;18821;44.800;10.326;2022-09-17T02:46:06;19.20;99.90
32348;DHT22;18821;44.800;10.326;2022-09-17T02:51:24;19.10;99.90
32348;DHT22;18821;44.800;10.326;2022-09-17T02:57:06;18.90;99.90
32348;DHT22;18821;44.800;10.326;2022-09-17T02:59:46;18.90;99.90
32348;DHT22;18821;44.800;10.326;2022-09-17T03:05:03;18.90;99.90
32348;DHT22;18821;44.800;10.326;2022-09-17T03:07:31;18.90;99.90
32348;DHT22;18821;44.800;10.326;2022-09-17T03:09:57;18.90;99.90
32348;DHT22;18821;44.800;10.326;2022-09-17T03:12:25;18.90;99.90
32348;DHT22;18821;44.800;10.326;2022-09-17T03:14:52;18.90;99.90
32348;DHT22;18821;44.800;10.326;2022-09-17T03:17:17;18.90;99.90
32348;DHT22;18821;44.800;10.326;2022-09-17T03:19:43;18.80;99.90
32348;DHT22;18821;44.800;10.326;2022-09-17T03:22:09;18.70;99.90
32348;DHT22;18821;44.800;10.326;2022-09-17T03:24:35;18.70;99.90
32348;DHT22;18821;44.800;10.326;2022-09-17T03:27:01;18.60;99.90
32348;DHT22;18821;44.800;10.326;2022-09-17T03:29:27;18.50;99.90
32348;DHT22;18821;44.800;10.326;2022-09-17T03:31:53;18.30;99.90
32348;DHT22;18821;44.800;10.326;2022-09-17T03:34:19;18.10;99.90
32348;DHT22;18821;44.800;10.326;2022-09-17T03:36:47;17.90;99.90
32348;DHT22;18821;44.800;10.326;2022-09-17T03:39:12;17.90;99.90
32348;DHT22;18821;44.800;10.326;2022-09-17T03:41:38;17.80;99.90
32348;DHT22;18821;44.800;10.326;2022-09-17T03:44:04;17.80;99.90
32348;DHT22;18821;44.800;10.326;2022-09-17T03:46:31;17.80;99.90
32348;DHT22;18821;44.800;10.326;2022-09-17T03:48:57;17.70;99.90
32348;DHT22;18821;44.800;10.326;2022-09-17T03:51:23;17.70;99.90
32348;DHT22;18821;44.800;10.326;2022-09-17T03:53:50;17.50;99.90
32348;DHT22;18821;44.800;10.326;2022-09-17T03:56:16;17.20;99.90
32348;DHT22;18821;44.800;10.326;2022-09-17T03:58:42;16.70;99.90
32348;DHT22;18821;44.800;10.326;2022-09-17T04:01:08;16.70;99.90
32348;DHT22;18821;44.800;10.326;2022-09-17T04:03:34;16.60;99.90
32348;DHT22;18821;44.800;10.326;2022-09-17T04:06:00;16.50;99.90
32348;DHT22;18821;44.800;10.326;2022-09-17T04:08:26;16.50;99.90
32348;DHT22;18821;44.800;10.326;2022-09-17T04:10:52;16.40;99.90
32348;DHT22;18821;44.800;10.326;2022-09-17T04:13:18;16.30;99.90
32348;DHT22;18821;44.800;10.326;2022-09-17T04:15:45;16.30;99.90
32348;DHT22;18821;44.800;10.326;2022-09-17T04:18:12;16.30;99.90
32348;DHT22;18821;44.800;10.326;2022-09-17T04:20:38;16.40;99.90
32348;DHT22;18821;44.800;10.326;2022-09-17T04:23:04;16.50;99.90
32348;DHT22;18821;44.800;10.326;2022-09-17T04:25:32;16.50;99.90
32348;DHT22;18821;44.800;10.326;2022-09-17T04:27:58;16.50;99.90
32348;DHT22;18821;44.800;10.326;2022-09-17T04:30:24;16.40;99.90
32348;DHT22;18821;44.800;10.326;2022-09-17T04:32:50;16.40;99.90
32348;DHT22;18821;44.800;10.326;2022-09-17T04:35:16;16.40;99.90
32348;DHT22;18821;44.800;10.326;2022-09-17T04:37:42;16.40;99.90
32348;DHT22;18821;44.800;10.326;2022-09-17T04:40:08;16.40;99.90
32348;DHT22;18821;44.800;10.326;2022-09-17T04:42:34;16.30;99.90
32348;DHT22;18821;44.800;10.326;2022-09-17T04:45:00;16.30;99.90
32348;DHT22;18821;44.800;10.326;2022-09-17T04:47:26;16.30;99.90
32348;DHT22;18821;44.800;10.326;2022-09-17T04:49:52;16.20;99.90
32348;DHT22;18821;44.800;10.326;2022-09-17T04:52:17;16.20;99.90
32348;DHT22;18821;44.800;10.326;2022-09-17T04:54:43;16.20;99.90
32348;DHT22;18821;44.800;10.326;2022-09-17T04:57:10;16.20;99.90
32348;DHT22;18821;44.800;10.326;2022-09-17T04:59:35;16.10;99.90
32348;DHT22;18821;44.800;10.326;2022-09-17T05:02:01;16.10;99.90
32348;DHT22;18821;44.800;10.326;2022-09-17T05:04:27;16.20;99.90
32348;DHT22;18821;44.800;10.326;2022-09-17T05:06:53;16.20;99.90
32348;DHT22;18821;44.800;10.326;2022-09-17T05:09:20;16.20;99.90
32348;DHT22;18821;44.800;10.326;2022-09-17T05:11:46;16.20;99.90
32348;DHT22;18821;44.800;10.326;2022-09-17T05:14:11;16.10;99.90
32348;DHT22;18821;44.800;10.326;2022-09-17T05:16:38;16.10;99.90
32348;DHT22;18821;44.800;10.326;2022-09-17T05:19:05;16.00;99.90
32348;DHT22;18821;44.800;10.326;2022-09-17T05:21:32;16.00;99.90
32348;DHT22;18821;44.800;10.326;2022-09-17T05:23:58;15.90;99.90
32348;DHT22;18821;44.800;10.326;2022-09-17T05:26:23;15.90;99.90
32348;DHT22;18821;44.800;10.326;2022-09-17T05:28:49;15.90;99.90
32348;DHT22;18821;44.800;10.326;2022-09-17T05:31:16;15.80;99.90
32348;DHT22;18821;44.800;10.326;2022-09-17T05:33:42;15.90;99.90
32348;DHT22;18821;44.800;10.326;2022-09-17T05:36:07;15.90;99.90
32348;DHT22;18821;44.800;10.326;2022-09-17T05:38:34;15.90;99.90
32348;DHT22;18821;44.800;10.326;2022-09-17T05:41:05;16.00;99.90
32348;DHT22;18821;44.800;10.326;2022-09-17T05:43:33;16.00;99.90
32348;DHT22;18821;44.800;10.326;2022-09-17T05:46:03;16.00;99.90
32348;DHT22;18821;44.800;10.326;2022-09-17T05:48:29;16.00;99.90
32348;DHT22;18821;44.800;10.326;2022-09-17T05:50:55;16.00;99.90
32348;DHT22;18821;44.800;10.326;2022-09-17T05:53:21;16.00;99.90
32348;DHT22;18821;44.800;10.326;2022-09-17T05:55:48;16.00;99.90
32348;DHT22;18821;44.800;10.326;2022-09-17T05:58:16;16.10;99.90
32348;DHT22;18821;44.800;10.326;2022-09-17T06:00:42;16.10;99.90
32348;DHT22;18821;44.800;10.326;2022-09-17T06:03:13;15.90;99.90
32348;DHT22;18821;44.800;10.326;2022-09-17T06:05:39;15.90;99.90
32348;DHT22;18821;44.800;10.326;2022-09-17T06:08:06;15.90;99.90
32348;DHT22;18821;44.800;10.326;2022-09-17T06:10:35;15.80;99.90
32348;DHT22;18821;44.800;10.326;2022-09-17T06:13:02;15.70;99.90
32348;DHT22;18821;44.800;10.326;2022-09-17T06:15:28;15.60;99.90
32348;DHT22;18821;44.800;10.326;2022-09-17T06:17:54;15.70;99.90
32348;DHT22;18821;44.800;10.326;2022-09-17T06:20:20;15.60;99.90
32348;DHT22;18821;44.800;10.326;2022-09-17T06:22:45;15.70;99.90
32348;DHT22;18821;44.800;10.326;2022-09-17T06:25:11;15.60;99.90
32348;DHT22;18821;44.800;10.326;2022-09-17T06:27:38;15.60;99.90
32348;DHT22;18821;44.800;10.326;2022-09-17T06:30:05;15.60;99.90
32348;DHT22;18821;44.800;10.326;2022-09-17T06:32:32;15.60;99.90
32348;DHT22;18821;44.800;10.326;2022-09-17T06:34:58;15.70;99.90
32348;DHT22;18821;44.800;10.326;2022-09-17T06:37:29;15.60;99.90
32348;DHT22;18821;44.800;10.326;2022-09-17T06:39:55;15.70;99.90
32348;DHT22;18821;44.800;10.326;2022-09-17T06:42:21;15.80;99.90
32348;DHT22;18821;44.800;10.326;2022-09-17T06:44:47;15.80;99.90
32348;DHT22;18821;44.800;10.326;2022-09-17T06:47:12;15.80;99.90
32348;DHT22;18821;44.800;10.326;2022-09-17T06:49:38;15.90;99.90
32348;DHT22;18821;44.800;10.326;2022-09-17T06:52:04;15.70;99.90
32348;DHT22;18821;44.800;10.326;2022-09-17T06:54:30;15.70;99.90
32348;DHT22;18821;44.800;10.326;2022-09-17T06:56:56;15.70;99.90
32348;DHT22;18821;44.800;10.326;2022-09-17T06:59:22;15.80;99.90
32348;DHT22;18821;44.800;10.326;2022-09-17T07:01:49;15.80;99.90
32348;DHT22;18821;44.800;10.326;2022-09-17T07:04:15;15.80;99.90
32348;DHT22;18821;44.800;10.326;2022-09-17T07:06:42;15.80;99.90
32348;DHT22;18821;44.800;10.326;2022-09-17T07:09:09;15.80;99.90
32348;DHT22;18821;44.800;10.326;2022-09-17T07:11:37;15.80;99.90
32348;DHT22;18821;44.800;10.326;2022-09-17T07:14:03;15.90;99.90
32348;DHT22;18821;44.800;10.326;2022-09-17T07:16:30;16.00;99.90
32348;DHT22;18821;44.800;10.326;2022-09-17T07:19:00;16.00;99.90
32348;DHT22;18821;44.800;10.326;2022-09-17T07:21:26;15.90;99.90
32348;DHT22;18821;44.800;10.326;2022-09-17T07:23:52;15.90;99.90
32348;DHT22;18821;44.800;10.326;2022-09-17T07:26:18;15.80;99.90
32348;DHT22;18821;44.800;10.326;2022-09-17T07:28:44;15.70;99.90
32348;DHT22;18821;44.800;10.326;2022-09-17T07:31:11;15.60;99.90
32348;DHT22;18821;44.800;10.326;2022-09-17T07:33:38;15.50;99.90
32348;DHT22;18821;44.800;10.326;2022-09-17T07:36:06;15.40;99.90
32348;DHT22;18821;44.800;10.326;2022-09-17T07:38:33;15.30;99.90
32348;DHT22;18821;44.800;10.326;2022-09-17T07:41:01;15.40;99.90
32348;DHT22;18821;44.800;10.326;2022-09-17T07:43:29;15.50;99.90
32348;DHT22;18821;44.800;10.326;2022-09-17T07:45:57;15.40;99.90
32348;DHT22;18821;44.800;10.326;2022-09-17T07:48:23;15.30;99.90
32348;DHT22;18821;44.800;10.326;2022-09-17T07:50:50;15.20;99.90
32348;DHT22;18821;44.800;10.326;2022-09-17T07:53:16;15.20;99.90
32348;DHT22;18821;44.800;10.326;2022-09-17T07:55:50;15.20;99.90
32348;DHT22;18821;44.800;10.326;2022-09-17T07:58:16;15.20;99.90
32348;DHT22;18821;44.800;10.326;2022-09-17T08:00:42;15.30;99.90
32348;DHT22;18821;44.800;10.326;2022-09-17T08:03:10;15.30;99.90
32348;DHT22;18821;44.800;10.326;2022-09-17T08:05:35;15.20;99.90
32348;DHT22;18821;44.800;10.326;2022-09-17T08:08:01;15.10;99.90
32348;DHT22;18821;44.800;10.326;2022-09-17T08:10:28;15.10;99.90
32348;DHT22;18821;44.800;10.326;2022-09-17T08:12:55;15.00;99.90
32348;DHT22;18821;44.800;10.326;2022-09-17T08:15:22;15.10;99.90
32348;DHT22;18821;44.800;10.326;2022-09-17T08:17:49;15.10;99.90
32348;DHT22;18821;44.800;10.326;2022-09-17T08:20:16;15.20;99.90
32348;DHT22;18821;44.800;10.326;2022-09-17T08:22:42;15.40;99.90
32348;DHT22;18821;44.800;10.326;2022-09-17T08:25:09;15.40;99.90
32348;DHT22;18821;44.800;10.326;2022-09-17T08:27:36;15.30;99.90
32348;DHT22;18821;44.800;10.326;2022-09-17T08:30:06;15.30;99.90
32348;DHT22;18821;44.800;10.326;2022-09-17T08:32:32;15.40;99.90
32348;DHT22;18821;44.800;10.326;2022-09-17T08:34:58;15.20;99.90
32348;DHT22;18821;44.800;10.326;2022-09-17T08:37:26;15.20;99.90
32348;DHT22;18821;44.800;10.326;2022-09-17T08:39:54;15.20;99.90
32348;DHT22;18821;44.800;10.326;2022-09-17T08:44:49;15.20;99.90
32348;DHT22;18821;44.800;10.326;2022-09-17T08:47:27;15.10;99.90
32348;DHT22;18821;44.800;10.326;2022-09-17T08:50:00;14.90;99.90
32348;DHT22;18821;44.800;10.326;2022-09-17T09:04:53;14.80;99.90
32348;DHT22;18821;44.800;10.326;2022-09-17T09:07:28;14.80;99.90
32348;DHT22;18821;44.800;10.326;2022-09-17T09:10:07;15.00;99.90
32348;DHT22;18821;44.800;10.326;2022-09-17T09:12:36;15.00;99.90
32348;DHT22;18821;44.800;10.326;2022-09-17T09:15:19;15.00;99.90
32348;DHT22;18821;44.800;10.326;2022-09-17T09:17:48;14.90;99.90
32348;DHT22;18821;44.800;10.326;2022-09-17T09:20:53;14.90;99.90
32348;DHT22;18821;44.800;10.326;2022-09-17T09:23:28;14.80;99.90
32348;DHT22;18821;44.800;10.326;2022-09-17T09:26:19;14.70;99.90
32348;DHT22;18821;44.800;10.326;2022-09-17T09:31:57;14.70;99.90
32348;DHT22;18821;44.800;10.326;2022-09-17T09:34:27;14.80;99.90
32348;DHT22;18821;44.800;10.326;2022-09-17T09:37:23;14.90;99.90
32348;DHT22;18821;44.800;10.326;2022-09-17T09:39:52;14.90;99.90
32348;DHT22;18821;44.800;10.326;2022-09-17T09:42:32;15.00;99.90
32348;DHT22;18821;44.800;10.326;2022-09-17T09:54:32;15.30;99.90
32348;DHT22;18821;44.800;10.326;2022-09-17T09:57:06;15.40;99.90
32348;DHT22;18821;44.800;10.326;2022-09-17T09:59:33;15.50;99.90
32348;DHT22;18821;44.800;10.326;2022-09-17T10:02:04;15.60;99.90
32348;DHT22;18821;44.800;10.326;2022-09-17T10:04:30;15.70;99.90
32348;DHT22;18821;44.800;10.326;2022-09-17T10:07:08;15.70;99.90
32348;DHT22;18821;44.800;10.326;2022-09-17T10:09:37;15.80;99.90
32348;DHT22;18821;44.800;10.326;2022-09-17T10:14:39;15.90;99.90
32348;DHT22;18821;44.800;10.326;2022-09-17T10:17:23;15.90;99.90
32348;DHT22;18821;44.800;10.326;2022-09-17T10:22:44;15.90;99.90
32348;DHT22;18821;44.800;10.326;2022-09-17T10:27:45;16.10;99.90
32348;DHT22;18821;44.800;10.326;2022-09-17T10:32:37;16.40;99.90
32348;DHT22;18821;44.800;10.326;2022-09-17T10:37:50;16.70;99.90
32348;DHT22;18821;44.800;10.326;2022-09-17T10:42:46;16.90;99.90
32348;DHT22;18821;44.800;10.326;2022-09-17T10:45:26;17.00;99.90
32348;DHT22;18821;44.800;10.326;2022-09-17T10:47:53;17.10;99.90
32348;DHT22;18821;44.800;10.326;2022-09-17T10:50:31;17.50;99.90
32348;DHT22;18821;44.800;10.326;2022-09-17T10:53:02;17.60;99.90
32348;DHT22;18821;44.800;10.326;2022-09-17T10:55:30;17.70;99.90
32348;DHT22;18821;44.800;10.326;2022-09-17T11:11:27;18.20;99.90
32348;DHT22;18821;44.800;10.326;2022-09-17T11:17:26;18.60;99.90
32348;DHT22;18821;44.800;10.326;2022-09-17T11:28:34;19.10;99.90
32348;DHT22;18821;44.800;10.326;2022-09-17T11:31:25;19.20;99.90
32348;DHT22;18821;44.800;10.326;2022-09-17T11:39:59;19.10;99.90
32348;DHT22;18821;44.800;10.326;2022-09-17T11:42:41;18.60;99.90
32348;DHT22;18821;44.800;10.326;2022-09-17T11:45:19;18.60;99.90
32348;DHT22;18821;44.800;10.326;2022-09-17T11:47:50;18.90;99.90
32348;DHT22;18821;44.800;10.326;2022-09-17T11:50:23;19.20;99.90
32348;DHT22;18821;44.800;10.326;2022-09-17T11:56:03;19.30;99.90
32348;DHT22;18821;44.800;10.326;2022-09-17T12:04:08;19.80;99.90
32348;DHT22;18821;44.800;10.326;2022-09-17T12:06:43;20.00;99.90
32348;DHT22;18821;44.800;10.326;2022-09-17T12:09:16;20.20;99.90
32348;DHT22;18821;44.800;10.326;2022-09-17T12:12:03;19.90;99.90
32348;DHT22;18821;44.800;10.326;2022-09-17T12:14:43;20.10;99.90
32348;DHT22;18821;44.800;10.326;2022-09-17T12:17:24;20.30;99.90
32348;DHT22;18821;44.800;10.326;2022-09-17T12:19:58;20.40;99.90
32348;DHT22;18821;44.800;10.326;2022-09-17T12:22:29;20.60;99.90
32348;DHT22;18821;44.800;10.326;2022-09-17T12:24:59;20.60;99.90
32348;DHT22;18821;44.800;10.326;2022-09-17T12:30:18;20.50;99.90
32348;DHT22;18821;44.800;10.326;2022-09-17T12:38:54;20.40;99.90
32348;DHT22;18821;44.800;10.326;2022-09-17T13:07:13;21.10;99.90
32348;DHT22;18821;44.800;10.326;2022-09-17T13:17:50;20.70;99.90
32348;DHT22;18821;44.800;10.326;2022-09-17T13:23:08;20.70;99.90
32348;DHT22;18821;44.800;10.326;2022-09-17T13:25:48;20.70;99.90
32348;DHT22;18821;44.800;10.326;2022-09-17T13:28:16;20.80;99.90
32348;DHT22;18821;44.800;10.326;2022-09-17T13:31:08;20.80;99.90
32348;DHT22;18821;44.800;10.326;2022-09-17T13:33:50;20.70;99.90
32348;DHT22;18821;44.800;10.326;2022-09-17T13:36:39;20.60;99.90
32348;DHT22;18821;44.800;10.326;2022-09-17T13:39:11;20.70;99.90
32348;DHT22;18821;44.800;10.326;2022-09-17T13:42:04;20.70;99.90
32348;DHT22;18821;44.800;10.326;2022-09-17T13:44:39;20.80;99.90
32348;DHT22;18821;44.800;10.326;2022-09-17T13:47:19;20.90;99.90
32348;DHT22;18821;44.800;10.326;2022-09-17T13:49:57;20.90;99.90
32348;DHT22;18821;44.800;10.326;2022-09-17T13:55:01;21.10;99.90
32348;DHT22;18821;44.800;10.326;2022-09-17T13:57:28;21.00;99.90
32348;DHT22;18821;44.800;10.326;2022-09-17T13:59:57;20.90;99.90
32348;DHT22;18821;44.800;10.326;2022-09-17T14:05:28;20.80;99.90
32348;DHT22;18821;44.800;10.326;2022-09-17T14:08:13;20.70;99.90
32348;DHT22;18821;44.800;10.326;2022-09-17T14:10:48;20.50;99.90
32348;DHT22;18821;44.800;10.326;2022-09-17T14:13:41;20.50;99.90
32348;DHT22;18821;44.800;10.326;2022-09-17T14:21:59;20.20;99.90
32348;DHT22;18821;44.800;10.326;2022-09-17T14:24:36;20.40;99.90
32348;DHT22;18821;44.800;10.326;2022-09-17T14:32:30;20.70;99.90
32348;DHT22;18821;44.800;10.326;2022-09-17T14:35:12;20.70;99.90
32348;DHT22;18821;44.800;10.326;2022-09-17T14:37:41;20.60;99.90
32348;DHT22;18821;44.800;10.326;2022-09-17T14:40:10;20.50;99.90
32348;DHT22;18821;44.800;10.326;2022-09-17T14:42:38;20.50;99.90
32348;DHT22;18821;44.800;10.326;2022-09-17T14:45:20;20.40;99.90
32348;DHT22;18821;44.800;10.326;2022-09-17T14:47:47;20.50;99.90
32348;DHT22;18821;44.800;10.326;2022-09-17T14:50:31;20.50;99.90
32348;DHT22;18821;44.800;10.326;2022-09-17T14:52:57;20.60;99.90
32348;DHT22;18821;44.800;10.326;2022-09-17T14:55:27;20.60;99.90
32348;DHT22;18821;44.800;10.326;2022-09-17T14:57:57;20.70;99.90
32348;DHT22;18821;44.800;10.326;2022-09-17T15:00:36;20.80;99.90
32348;DHT22;18821;44.800;10.326;2022-09-17T15:03:05;20.70;99.90
32348;DHT22;18821;44.800;10.326;2022-09-17T15:05:35;20.70;99.90
32348;DHT22;18821;44.800;10.326;2022-09-17T15:08:16;20.70;99.90
32348;DHT22;18821;44.800;10.326;2022-09-17T15:13:45;20.70;99.90
32348;DHT22;18821;44.800;10.326;2022-09-17T15:16:19;20.60;99.90
32348;DHT22;18821;44.800;10.326;2022-09-17T15:26:41;20.50;99.90
32348;DHT22;18821;44.800;10.326;2022-09-17T15:29:11;20.50;99.90
32348;DHT22;18821;44.800;10.326;2022-09-17T15:31:38;20.50;99.90
32348;DHT22;18821;44.800;10.326;2022-09-17T15:34:04;20.40;99.90
32348;DHT22;18821;44.800;10.326;2022-09-17T15:36:29;20.40;99.90
32348;DHT22;18821;44.800;10.326;2022-09-17T15:38:57;20.40;99.90
32348;DHT22;18821;44.800;10.326;2022-09-17T15:41:33;20.40;99.90
32348;DHT22;18821;44.800;10.326;2022-09-17T15:44:16;20.30;99.90
32348;DHT22;18821;44.800;10.326;2022-09-17T15:46:45;20.30;99.90
32348;DHT22;18821;44.800;10.326;2022-09-17T15:49:30;20.20;99.90
32348;DHT22;18821;44.800;10.326;2022-09-17T15:52:27;20.30;99.90
32348;DHT22;18821;44.800;10.326;2022-09-17T15:54:57;20.20;99.90
32348;DHT22;18821;44.800;10.326;2022-09-17T15:57:25;20.10;99.90
32348;DHT22;18821;44.800;10.326;2022-09-17T15:59:52;20.00;99.90
32348;DHT22;18821;44.800;10.326;2022-09-17T16:02:30;19.90;99.90
32348;DHT22;18821;44.800;10.326;2022-09-17T16:07:42;19.90;99.90
32348;DHT22;18821;44.800;10.326;2022-09-17T16:10:10;19.80;99.90
32348;DHT22;18821;44.800;10.326;2022-09-17T16:12:36;19.80;99.90
32348;DHT22;18821;44.800;10.326;2022-09-17T16:15:03;19.70;99.90
32348;DHT22;18821;44.800;10.326;2022-09-17T16:20:18;19.50;99.90
32348;DHT22;18821;44.800;10.326;2022-09-17T16:22:45;19.40;99.90
32348;DHT22;18821;44.800;10.326;2022-09-17T16:25:13;19.40;99.90
32348;DHT22;18821;44.800;10.326;2022-09-17T16:27:55;19.30;99.90
32348;DHT22;18821;44.800;10.326;2022-09-17T16:30:22;19.20;99.90
32348;DHT22;18821;44.800;10.326;2022-09-17T16:32:48;19.20;99.90
32348;DHT22;18821;44.800;10.326;2022-09-17T16:35:19;19.20;99.90
32348;DHT22;18821;44.800;10.326;2022-09-17T16:37:50;19.20;99.90
32348;DHT22;18821;44.800;10.326;2022-09-17T16:40:17;19.20;99.90
32348;DHT22;18821;44.800;10.326;2022-09-17T16:42:44;19.10;99.90
32348;DHT22;18821;44.800;10.326;2022-09-17T16:45:10;19.10;99.90
32348;DHT22;18821;44.800;10.326;2022-09-17T16:47:37;19.10;99.90
32348;DHT22;18821;44.800;10.326;2022-09-17T16:50:05;19.00;99.90
32348;DHT22;18821;44.800;10.326;2022-09-17T16:52:32;18.90;99.90
32348;DHT22;18821;44.800;10.326;2022-09-17T16:54:58;18.80;99.90
32348;DHT22;18821;44.800;10.326;2022-09-17T16:57:24;18.80;99.90
32348;DHT22;18821;44.800;10.326;2022-09-17T16:59:51;18.70;99.90
32348;DHT22;18821;44.800;10.326;2022-09-17T17:02:16;18.70;99.90
32348;DHT22;18821;44.800;10.326;2022-09-17T17:04:42;18.60;99.90
32348;DHT22;18821;44.800;10.326;2022-09-17T17:07:08;18.60;99.90
32348;DHT22;18821;44.800;10.326;2022-09-17T17:09:35;18.50;99.90
32348;DHT22;18821;44.800;10.326;2022-09-17T17:12:01;18.40;99.90
32348;DHT22;18821;44.800;10.326;2022-09-17T17:14:27;18.30;99.90
32348;DHT22;18821;44.800;10.326;2022-09-17T17:16:53;18.30;99.90
32348;DHT22;18821;44.800;10.326;2022-09-17T17:19:19;18.20;99.90
32348;DHT22;18821;44.800;10.326;2022-09-17T17:21:45;18.20;99.90
32348;DHT22;18821;44.800;10.326;2022-09-17T17:24:15;18.10;99.90
32348;DHT22;18821;44.800;10.326;2022-09-17T17:26:41;18.10;99.90
32348;DHT22;18821;44.800;10.326;2022-09-17T17:29:07;18.10;99.90
32348;DHT22;18821;44.800;10.326;2022-09-17T17:31:34;18.00;99.90
32348;DHT22;18821;44.800;10.326;2022-09-17T17:34:00;18.00;99.90
32348;DHT22;18821;44.800;10.326;2022-09-17T17:36:26;17.90;99.90
32348;DHT22;18821;44.800;10.326;2022-09-17T17:38:59;17.90;99.90
32348;DHT22;18821;44.800;10.326;2022-09-17T17:41:25;17.80;99.90
32348;DHT22;18821;44.800;10.326;2022-09-17T17:43:53;17.70;99.90
32348;DHT22;18821;44.800;10.326;2022-09-17T17:46:21;17.70;99.90
32348;DHT22;18821;44.800;10.326;2022-09-17T17:48:49;17.70;99.90
32348;DHT22;18821;44.800;10.326;2022-09-17T17:51:16;17.60;99.90
32348;DHT22;18821;44.800;10.326;2022-09-17T17:53:44;17.60;99.90
32348;DHT22;18821;44.800;10.326;2022-09-17T17:56:11;17.60;99.90
32348;DHT22;18821;44.800;10.326;2022-09-17T17:58:37;17.60;99.90
32348;DHT22;18821;44.800;10.326;2022-09-17T18:01:19;17.50;99.90
32348;DHT22;18821;44.800;10.326;2022-09-17T18:03:45;17.50;99.90
32348;DHT22;18821;44.800;10.326;2022-09-17T18:06:12;17.50;99.90
32348;DHT22;18821;44.800;10.326;2022-09-17T18:08:40;17.50;99.90
32348;DHT22;18821;44.800;10.326;2022-09-17T18:11:08;17.40;99.90
32348;DHT22;18821;44.800;10.326;2022-09-17T18:13:35;17.30;99.90
32348;DHT22;18821;44.800;10.326;2022-09-17T18:16:02;17.30;99.90
32348;DHT22;18821;44.800;10.326;2022-09-17T18:18:35;17.30;99.90
32348;DHT22;18821;44.800;10.326;2022-09-17T18:21:04;17.20;99.90
32348;DHT22;18821;44.800;10.326;2022-09-17T18:23:33;17.20;99.90
32348;DHT22;18821;44.800;10.326;2022-09-17T18:26:00;17.10;99.90
32348;DHT22;18821;44.800;10.326;2022-09-17T18:28:28;17.00;99.90
32348;DHT22;18821;44.800;10.326;2022-09-17T18:30:55;16.90;99.90
32348;DHT22;18821;44.800;10.326;2022-09-17T18:33:25;16.90;99.90
32348;DHT22;18821;44.800;10.326;2022-09-17T18:35:52;16.90;99.90
32348;DHT22;18821;44.800;10.326;2022-09-17T18:38:22;16.90;99.90
32348;DHT22;18821;44.800;10.326;2022-09-17T18:40:49;16.90;99.90
32348;DHT22;18821;44.800;10.326;2022-09-17T18:43:15;16.80;99.90
32348;DHT22;18821;44.800;10.326;2022-09-17T18:45:41;16.80;99.90
32348;DHT22;18821;44.800;10.326;2022-09-17T18:48:07;16.80;99.90
32348;DHT22;18821;44.800;10.326;2022-09-17T18:50:33;16.70;99.90
32348;DHT22;18821;44.800;10.326;2022-09-17T18:53:00;16.70;99.90